sensor_id;sensor_type;location;lat;lon;timestamp;P1;durP1;ratioP1;P2;durP2;ratioP2
7336;SDS011;54510;42.016;23.098;2023-02-18T00:01:20;20.25;;;11.43;;
7336;SDS011;54510;42.016;23.098;2023-02-18T00:03:47;29.58;;;15.15;;
7336;SDS011;54510;42.016;23.098;2023-02-18T00:06:14;32.35;;;15.95;;
7336;SDS011;54510;42.016;23.098;2023-02-18T00:08:51;33.20;;;17.30;;
7336;SDS011;54510;42.016;23.098;2023-02-18T00:11:17;36.00;;;20.30;;
7336;SDS011;54510;42.016;23.098;2023-02-18T00:13:55;37.83;;;20.00;;
7336;SDS011;54510;42.016;23.098;2023-02-18T00:16:23;33.60;;;20.05;;
7336;SDS011;54510;42.016;23.098;2023-02-18T00:18:49;39.97;;;19.75;;
7336;SDS011;54510;42.016;23.098;2023-02-18T00:21:15;34.55;;;18.98;;
7336;SDS011;54510;42.016;23.098;2023-02-18T00:23:40;34.05;;;18.55;;
7336;SDS011;54510;42.016;23.098;2023-02-18T00:26:10;33.15;;;19.65;;
7336;SDS011;54510;42.016;23.098;2023-02-18T00:28:37;34.08;;;20.00;;
7336;SDS011;54510;42.016;23.098;2023-02-18T00:31:07;36.03;;;19.35;;
7336;SDS011;54510;42.016;23.098;2023-02-18T00:33:34;34.60;;;19.42;;
7336;SDS011;54510;42.016;23.098;2023-02-18T00:36:04;36.03;;;18.25;;
7336;SDS011;54510;42.016;23.098;2023-02-18T00:38:31;34.72;;;19.58;;
7336;SDS011;54510;42.016;23.098;2023-02-18T00:40:57;29.90;;;16.33;;
7336;SDS011;54510;42.016;23.098;2023-02-18T00:43:23;28.10;;;16.58;;
7336;SDS011;54510;42.016;23.098;2023-02-18T00:45:49;27.92;;;14.20;;
7336;SDS011;54510;42.016;23.098;2023-02-18T00:48:14;27.33;;;14.57;;
7336;SDS011;54510;42.016;23.098;2023-02-18T00:50:40;25.98;;;13.20;;
7336;SDS011;54510;42.016;23.098;2023-02-18T00:53:05;26.42;;;15.25;;
7336;SDS011;54510;42.016;23.098;2023-02-18T00:55:30;26.30;;;15.75;;
7336;SDS011;54510;42.016;23.098;2023-02-18T00:57:56;27.08;;;14.95;;
7336;SDS011;54510;42.016;23.098;2023-02-18T01:00:21;25.77;;;14.57;;
7336;SDS011;54510;42.016;23.098;2023-02-18T01:02:49;30.10;;;14.73;;
7336;SDS011;54510;42.016;23.098;2023-02-18T01:05:19;30.92;;;15.90;;
7336;SDS011;54510;42.016;23.098;2023-02-18T01:07:45;28.75;;;17.42;;
7336;SDS011;54510;42.016;23.098;2023-02-18T01:10:11;21.63;;;10.88;;
7336;SDS011;54510;42.016;23.098;2023-02-18T01:12:37;23.30;;;10.45;;
7336;SDS011;54510;42.016;23.098;2023-02-18T01:15:03;18.10;;;9.82;;
7336;SDS011;54510;42.016;23.098;2023-02-18T01:17:29;24.52;;;11.55;;
7336;SDS011;54510;42.016;23.098;2023-02-18T01:19:55;31.77;;;12.48;;
7336;SDS011;54510;42.016;23.098;2023-02-18T01:22:20;29.70;;;16.48;;
7336;SDS011;54510;42.016;23.098;2023-02-18T01:24:46;22.25;;;13.88;;
7336;SDS011;54510;42.016;23.098;2023-02-18T01:27:11;29.08;;;14.60;;
7336;SDS011;54510;42.016;23.098;2023-02-18T01:29:37;23.17;;;14.32;;
7336;SDS011;54510;42.016;23.098;2023-02-18T01:32:02;26.08;;;14.43;;
7336;SDS011;54510;42.016;23.098;2023-02-18T01:34:28;23.45;;;13.20;;
7336;SDS011;54510;42.016;23.098;2023-02-18T01:36:54;24.23;;;13.27;;
7336;SDS011;54510;42.016;23.098;2023-02-18T01:39:20;28.42;;;13.15;;
7336;SDS011;54510;42.016;23.098;2023-02-18T01:41:45;21.88;;;12.05;;
7336;SDS011;54510;42.016;23.098;2023-02-18T01:44:24;21.85;;;12.05;;
7336;SDS011;54510;42.016;23.098;2023-02-18T01:46:50;27.73;;;13.60;;
7336;SDS011;54510;42.016;23.098;2023-02-18T01:49:18;25.10;;;13.55;;
7336;SDS011;54510;42.016;23.098;2023-02-18T01:51:49;20.92;;;10.50;;
7336;SDS011;54510;42.016;23.098;2023-02-18T01:54:22;21.25;;;10.00;;
7336;SDS011;54510;42.016;23.098;2023-02-18T01:56:54;21.95;;;10.45;;
7336;SDS011;54510;42.016;23.098;2023-02-18T01:59:24;20.80;;;10.80;;
7336;SDS011;54510;42.016;23.098;2023-02-18T02:01:54;16.05;;;9.20;;
7336;SDS011;54510;42.016;23.098;2023-02-18T02:04:20;18.55;;;8.88;;
7336;SDS011;54510;42.016;23.098;2023-02-18T02:06:46;17.67;;;10.13;;
7336;SDS011;54510;42.016;23.098;2023-02-18T02:09:12;20.60;;;11.40;;
7336;SDS011;54510;42.016;23.098;2023-02-18T02:12:03;24.27;;;13.32;;
7336;SDS011;54510;42.016;23.098;2023-02-18T02:17:11;23.30;;;13.23;;
7336;SDS011;54510;42.016;23.098;2023-02-18T02:25:23;21.00;;;11.18;;
7336;SDS011;54510;42.016;23.098;2023-02-18T02:30:41;27.50;;;14.65;;
7336;SDS011;54510;42.016;23.098;2023-02-18T02:36:34;26.10;;;14.05;;
7336;SDS011;54510;42.016;23.098;2023-02-18T02:39:19;24.40;;;13.70;;
7336;SDS011;54510;42.016;23.098;2023-02-18T02:47:07;21.65;;;13.20;;
7336;SDS011;54510;42.016;23.098;2023-02-18T02:49:41;30.17;;;15.00;;
7336;SDS011;54510;42.016;23.098;2023-02-18T02:52:22;23.83;;;14.85;;
7336;SDS011;54510;42.016;23.098;2023-02-18T02:54:54;25.60;;;13.38;;
7336;SDS011;54510;42.016;23.098;2023-02-18T02:59:47;24.13;;;13.52;;
7336;SDS011;54510;42.016;23.098;2023-02-18T03:08:06;28.08;;;14.98;;
7336;SDS011;54510;42.016;23.098;2023-02-18T03:21:14;28.27;;;16.00;;
7336;SDS011;54510;42.016;23.098;2023-02-18T03:23:48;25.98;;;14.48;;
7336;SDS011;54510;42.016;23.098;2023-02-18T03:26:20;25.15;;;14.45;;
7336;SDS011;54510;42.016;23.098;2023-02-18T03:28:48;29.05;;;14.75;;
7336;SDS011;54510;42.016;23.098;2023-02-18T03:31:17;28.05;;;15.77;;
7336;SDS011;54510;42.016;23.098;2023-02-18T03:33:47;28.30;;;16.02;;
7336;SDS011;54510;42.016;23.098;2023-02-18T03:36:18;25.23;;;15.02;;
7336;SDS011;54510;42.016;23.098;2023-02-18T03:38:57;26.95;;;15.43;;
7336;SDS011;54510;42.016;23.098;2023-02-18T03:41:25;26.90;;;14.10;;
7336;SDS011;54510;42.016;23.098;2023-02-18T03:43:52;28.23;;;15.85;;
7336;SDS011;54510;42.016;23.098;2023-02-18T03:46:20;25.73;;;15.45;;
7336;SDS011;54510;42.016;23.098;2023-02-18T03:48:46;26.48;;;15.35;;
7336;SDS011;54510;42.016;23.098;2023-02-18T03:51:11;28.85;;;16.85;;
7336;SDS011;54510;42.016;23.098;2023-02-18T03:53:37;26.10;;;15.25;;
7336;SDS011;54510;42.016;23.098;2023-02-18T03:56:02;24.38;;;15.10;;
7336;SDS011;54510;42.016;23.098;2023-02-18T03:58:28;29.17;;;16.40;;
7336;SDS011;54510;42.016;23.098;2023-02-18T04:00:53;27.58;;;15.05;;
7336;SDS011;54510;42.016;23.098;2023-02-18T04:03:19;26.05;;;15.70;;
7336;SDS011;54510;42.016;23.098;2023-02-18T04:05:44;26.48;;;12.80;;
7336;SDS011;54510;42.016;23.098;2023-02-18T04:08:09;26.83;;;13.80;;
7336;SDS011;54510;42.016;23.098;2023-02-18T04:10:35;24.77;;;11.82;;
7336;SDS011;54510;42.016;23.098;2023-02-18T04:13:00;19.95;;;10.63;;
7336;SDS011;54510;42.016;23.098;2023-02-18T04:15:26;19.58;;;11.27;;
7336;SDS011;54510;42.016;23.098;2023-02-18T04:17:51;20.10;;;11.43;;
7336;SDS011;54510;42.016;23.098;2023-02-18T04:20:17;23.50;;;13.10;;
7336;SDS011;54510;42.016;23.098;2023-02-18T04:22:42;22.40;;;10.85;;
7336;SDS011;54510;42.016;23.098;2023-02-18T04:25:08;27.42;;;12.73;;
7336;SDS011;54510;42.016;23.098;2023-02-18T04:27:33;22.98;;;12.80;;
7336;SDS011;54510;42.016;23.098;2023-02-18T04:29:59;24.45;;;13.93;;
7336;SDS011;54510;42.016;23.098;2023-02-18T04:32:24;22.45;;;12.55;;
7336;SDS011;54510;42.016;23.098;2023-02-18T04:34:50;26.70;;;14.15;;
7336;SDS011;54510;42.016;23.098;2023-02-18T04:37:15;25.15;;;14.25;;
7336;SDS011;54510;42.016;23.098;2023-02-18T04:39:41;24.83;;;13.65;;
7336;SDS011;54510;42.016;23.098;2023-02-18T04:42:06;23.27;;;13.82;;
7336;SDS011;54510;42.016;23.098;2023-02-18T04:44:35;24.35;;;14.02;;
7336;SDS011;54510;42.016;23.098;2023-02-18T04:47:01;34.03;;;14.77;;
7336;SDS011;54510;42.016;23.098;2023-02-18T04:49:27;25.80;;;13.30;;
7336;SDS011;54510;42.016;23.098;2023-02-18T04:51:52;27.15;;;14.02;;
7336;SDS011;54510;42.016;23.098;2023-02-18T04:54:17;25.83;;;15.10;;
7336;SDS011;54510;42.016;23.098;2023-02-18T04:56:43;23.40;;;12.77;;
7336;SDS011;54510;42.016;23.098;2023-02-18T04:59:08;28.17;;;13.88;;
7336;SDS011;54510;42.016;23.098;2023-02-18T05:01:35;21.92;;;13.02;;
7336;SDS011;54510;42.016;23.098;2023-02-18T05:04:01;23.67;;;13.70;;
7336;SDS011;54510;42.016;23.098;2023-02-18T05:06:26;28.17;;;13.90;;
7336;SDS011;54510;42.016;23.098;2023-02-18T05:08:51;25.50;;;14.88;;
7336;SDS011;54510;42.016;23.098;2023-02-18T05:11:17;25.98;;;14.75;;
7336;SDS011;54510;42.016;23.098;2023-02-18T05:13:42;27.42;;;15.25;;
7336;SDS011;54510;42.016;23.098;2023-02-18T05:16:08;24.17;;;14.50;;
7336;SDS011;54510;42.016;23.098;2023-02-18T05:18:33;25.20;;;13.32;;
7336;SDS011;54510;42.016;23.098;2023-02-18T05:20:59;24.88;;;13.63;;
7336;SDS011;54510;42.016;23.098;2023-02-18T05:23:24;30.80;;;16.10;;
7336;SDS011;54510;42.016;23.098;2023-02-18T05:25:50;32.45;;;16.08;;
7336;SDS011;54510;42.016;23.098;2023-02-18T05:28:15;22.90;;;14.55;;
7336;SDS011;54510;42.016;23.098;2023-02-18T05:30:41;25.73;;;14.05;;
7336;SDS011;54510;42.016;23.098;2023-02-18T05:33:06;30.45;;;14.27;;
7336;SDS011;54510;42.016;23.098;2023-02-18T05:35:32;26.73;;;13.80;;
7336;SDS011;54510;42.016;23.098;2023-02-18T05:37:57;34.33;;;18.17;;
7336;SDS011;54510;42.016;23.098;2023-02-18T05:40:23;33.20;;;16.48;;
7336;SDS011;54510;42.016;23.098;2023-02-18T05:42:48;26.52;;;16.05;;
7336;SDS011;54510;42.016;23.098;2023-02-18T05:45:13;28.25;;;17.17;;
7336;SDS011;54510;42.016;23.098;2023-02-18T05:47:39;27.27;;;15.52;;
7336;SDS011;54510;42.016;23.098;2023-02-18T05:50:05;41.67;;;20.60;;
7336;SDS011;54510;42.016;23.098;2023-02-18T05:52:31;70.57;;;34.55;;
7336;SDS011;54510;42.016;23.098;2023-02-18T05:54:56;62.70;;;29.85;;
7336;SDS011;54510;42.016;23.098;2023-02-18T05:57:22;38.67;;;19.88;;
7336;SDS011;54510;42.016;23.098;2023-02-18T05:59:47;23.23;;;14.15;;
7336;SDS011;54510;42.016;23.098;2023-02-18T06:02:13;25.45;;;14.20;;
7336;SDS011;54510;42.016;23.098;2023-02-18T06:04:38;23.23;;;12.82;;
7336;SDS011;54510;42.016;23.098;2023-02-18T06:07:04;29.25;;;15.25;;
7336;SDS011;54510;42.016;23.098;2023-02-18T06:09:30;33.33;;;19.27;;
7336;SDS011;54510;42.016;23.098;2023-02-18T06:11:56;86.68;;;42.92;;
7336;SDS011;54510;42.016;23.098;2023-02-18T06:14:21;68.15;;;31.80;;
7336;SDS011;54510;42.016;23.098;2023-02-18T06:16:47;54.90;;;26.25;;
7336;SDS011;54510;42.016;23.098;2023-02-18T06:19:12;23.55;;;13.80;;
7336;SDS011;54510;42.016;23.098;2023-02-18T06:21:38;29.65;;;17.15;;
7336;SDS011;54510;42.016;23.098;2023-02-18T06:24:03;30.33;;;14.77;;
7336;SDS011;54510;42.016;23.098;2023-02-18T06:26:29;24.05;;;13.73;;
7336;SDS011;54510;42.016;23.098;2023-02-18T06:28:54;28.95;;;15.43;;
7336;SDS011;54510;42.016;23.098;2023-02-18T06:31:20;20.30;;;10.00;;
7336;SDS011;54510;42.016;23.098;2023-02-18T06:33:45;24.52;;;14.25;;
7336;SDS011;54510;42.016;23.098;2023-02-18T06:36:11;32.13;;;16.25;;
7336;SDS011;54510;42.016;23.098;2023-02-18T06:38:41;24.20;;;14.80;;
7336;SDS011;54510;42.016;23.098;2023-02-18T06:41:08;30.27;;;16.25;;
7336;SDS011;54510;42.016;23.098;2023-02-18T06:43:34;38.55;;;18.45;;
7336;SDS011;54510;42.016;23.098;2023-02-18T06:46:00;35.75;;;21.70;;
7336;SDS011;54510;42.016;23.098;2023-02-18T06:48:26;33.00;;;19.25;;
7336;SDS011;54510;42.016;23.098;2023-02-18T06:50:51;32.47;;;17.33;;
7336;SDS011;54510;42.016;23.098;2023-02-18T06:53:16;34.67;;;17.48;;
7336;SDS011;54510;42.016;23.098;2023-02-18T06:55:42;38.08;;;22.25;;
7336;SDS011;54510;42.016;23.098;2023-02-18T06:58:09;36.10;;;20.63;;
7336;SDS011;54510;42.016;23.098;2023-02-18T07:00:35;36.05;;;19.80;;
7336;SDS011;54510;42.016;23.098;2023-02-18T07:03:01;45.47;;;22.50;;
7336;SDS011;54510;42.016;23.098;2023-02-18T07:05:26;30.73;;;17.80;;
7336;SDS011;54510;42.016;23.098;2023-02-18T07:07:52;28.10;;;16.50;;
7336;SDS011;54510;42.016;23.098;2023-02-18T07:10:17;35.90;;;17.80;;
7336;SDS011;54510;42.016;23.098;2023-02-18T07:12:43;38.95;;;18.98;;
7336;SDS011;54510;42.016;23.098;2023-02-18T07:15:08;25.83;;;16.48;;
7336;SDS011;54510;42.016;23.098;2023-02-18T07:17:34;32.17;;;18.52;;
7336;SDS011;54510;42.016;23.098;2023-02-18T07:20:00;32.97;;;20.40;;
7336;SDS011;54510;42.016;23.098;2023-02-18T07:22:25;36.92;;;18.65;;
7336;SDS011;54510;42.016;23.098;2023-02-18T07:24:51;36.15;;;19.42;;
7336;SDS011;54510;42.016;23.098;2023-02-18T07:27:18;39.83;;;20.13;;
7336;SDS011;54510;42.016;23.098;2023-02-18T07:29:44;32.72;;;19.73;;
7336;SDS011;54510;42.016;23.098;2023-02-18T07:32:13;25.38;;;15.88;;
7336;SDS011;54510;42.016;23.098;2023-02-18T07:34:40;35.15;;;17.92;;
7336;SDS011;54510;42.016;23.098;2023-02-18T07:37:05;34.35;;;19.80;;
7336;SDS011;54510;42.016;23.098;2023-02-18T07:39:38;39.60;;;19.08;;
7336;SDS011;54510;42.016;23.098;2023-02-18T07:42:04;40.70;;;21.33;;
7336;SDS011;54510;42.016;23.098;2023-02-18T07:44:29;53.33;;;29.60;;
7336;SDS011;54510;42.016;23.098;2023-02-18T07:46:55;40.10;;;23.35;;
7336;SDS011;54510;42.016;23.098;2023-02-18T07:49:20;40.22;;;22.50;;
7336;SDS011;54510;42.016;23.098;2023-02-18T07:51:46;43.97;;;21.20;;
7336;SDS011;54510;42.016;23.098;2023-02-18T07:54:13;43.15;;;20.75;;
7336;SDS011;54510;42.016;23.098;2023-02-18T07:56:38;35.50;;;20.92;;
7336;SDS011;54510;42.016;23.098;2023-02-18T07:59:04;41.30;;;19.08;;
7336;SDS011;54510;42.016;23.098;2023-02-18T08:01:29;41.25;;;21.35;;
7336;SDS011;54510;42.016;23.098;2023-02-18T08:03:55;36.00;;;21.00;;
7336;SDS011;54510;42.016;23.098;2023-02-18T08:06:28;40.70;;;20.83;;
7336;SDS011;54510;42.016;23.098;2023-02-18T08:08:57;43.13;;;24.63;;
7336;SDS011;54510;42.016;23.098;2023-02-18T08:11:23;54.83;;;26.30;;
7336;SDS011;54510;42.016;23.098;2023-02-18T08:13:48;43.17;;;23.42;;
7336;SDS011;54510;42.016;23.098;2023-02-18T08:16:14;39.28;;;22.70;;
7336;SDS011;54510;42.016;23.098;2023-02-18T08:18:41;31.33;;;22.00;;
7336;SDS011;54510;42.016;23.098;2023-02-18T08:21:07;35.00;;;19.98;;
7336;SDS011;54510;42.016;23.098;2023-02-18T08:23:33;38.50;;;20.55;;
7336;SDS011;54510;42.016;23.098;2023-02-18T08:25:58;33.33;;;21.52;;
7336;SDS011;54510;42.016;23.098;2023-02-18T08:28:23;39.88;;;21.63;;
7336;SDS011;54510;42.016;23.098;2023-02-18T08:30:50;33.53;;;20.20;;
7336;SDS011;54510;42.016;23.098;2023-02-18T08:33:17;46.80;;;26.75;;
7336;SDS011;54510;42.016;23.098;2023-02-18T08:35:46;36.85;;;22.15;;
7336;SDS011;54510;42.016;23.098;2023-02-18T08:38:13;34.53;;;21.35;;
7336;SDS011;54510;42.016;23.098;2023-02-18T08:40:39;46.08;;;22.92;;
7336;SDS011;54510;42.016;23.098;2023-02-18T08:43:05;55.38;;;31.98;;
7336;SDS011;54510;42.016;23.098;2023-02-18T08:45:31;41.85;;;22.98;;
7336;SDS011;54510;42.016;23.098;2023-02-18T08:47:56;31.55;;;20.40;;
7336;SDS011;54510;42.016;23.098;2023-02-18T08:50:22;38.58;;;21.83;;
7336;SDS011;54510;42.016;23.098;2023-02-18T08:52:51;33.33;;;19.63;;
7336;SDS011;54510;42.016;23.098;2023-02-18T08:55:17;36.85;;;21.05;;
7336;SDS011;54510;42.016;23.098;2023-02-18T08:57:45;48.40;;;24.73;;
7336;SDS011;54510;42.016;23.098;2023-02-18T09:00:12;56.58;;;29.52;;
7336;SDS011;54510;42.016;23.098;2023-02-18T09:02:38;46.15;;;24.08;;
7336;SDS011;54510;42.016;23.098;2023-02-18T09:05:03;33.38;;;20.42;;
7336;SDS011;54510;42.016;23.098;2023-02-18T09:07:29;37.58;;;23.67;;
7336;SDS011;54510;42.016;23.098;2023-02-18T09:09:55;36.17;;;21.92;;
7336;SDS011;54510;42.016;23.098;2023-02-18T09:12:20;39.97;;;20.90;;
7336;SDS011;54510;42.016;23.098;2023-02-18T09:14:46;40.25;;;21.15;;
7336;SDS011;54510;42.016;23.098;2023-02-18T09:17:12;31.23;;;20.42;;
7336;SDS011;54510;42.016;23.098;2023-02-18T09:19:37;30.55;;;20.10;;
7336;SDS011;54510;42.016;23.098;2023-02-18T09:22:03;38.13;;;21.95;;
7336;SDS011;54510;42.016;23.098;2023-02-18T09:24:28;39.20;;;21.85;;
7336;SDS011;54510;42.016;23.098;2023-02-18T09:26:54;39.90;;;22.02;;
7336;SDS011;54510;42.016;23.098;2023-02-18T09:29:19;46.63;;;24.67;;
7336;SDS011;54510;42.016;23.098;2023-02-18T09:31:45;45.63;;;26.85;;
7336;SDS011;54510;42.016;23.098;2023-02-18T09:34:10;43.88;;;26.88;;
7336;SDS011;54510;42.016;23.098;2023-02-18T09:36:37;45.50;;;24.10;;
7336;SDS011;54510;42.016;23.098;2023-02-18T09:39:03;42.13;;;23.77;;
7336;SDS011;54510;42.016;23.098;2023-02-18T09:41:46;40.20;;;23.60;;
7336;SDS011;54510;42.016;23.098;2023-02-18T09:46:45;42.10;;;25.30;;
7336;SDS011;54510;42.016;23.098;2023-02-18T09:49:16;43.42;;;24.58;;
7336;SDS011;54510;42.016;23.098;2023-02-18T09:51:45;39.03;;;25.27;;
7336;SDS011;54510;42.016;23.098;2023-02-18T09:54:11;39.67;;;23.45;;
7336;SDS011;54510;42.016;23.098;2023-02-18T09:56:41;41.92;;;26.38;;
7336;SDS011;54510;42.016;23.098;2023-02-18T09:59:12;39.65;;;22.35;;
7336;SDS011;54510;42.016;23.098;2023-02-18T10:01:41;40.08;;;21.33;;
7336;SDS011;54510;42.016;23.098;2023-02-18T10:06:43;35.42;;;20.90;;
7336;SDS011;54510;42.016;23.098;2023-02-18T10:09:54;28.58;;;18.40;;
7336;SDS011;54510;42.016;23.098;2023-02-18T10:12:19;28.67;;;17.65;;
7336;SDS011;54510;42.016;23.098;2023-02-18T10:14:57;32.72;;;18.67;;
7336;SDS011;54510;42.016;23.098;2023-02-18T10:17:25;35.53;;;18.60;;
7336;SDS011;54510;42.016;23.098;2023-02-18T10:19:54;35.45;;;18.23;;
7336;SDS011;54510;42.016;23.098;2023-02-18T10:22:21;30.23;;;17.60;;
7336;SDS011;54510;42.016;23.098;2023-02-18T10:24:53;42.00;;;20.75;;
7336;SDS011;54510;42.016;23.098;2023-02-18T10:27:29;31.53;;;17.60;;
7336;SDS011;54510;42.016;23.098;2023-02-18T10:30:45;36.35;;;18.75;;
7336;SDS011;54510;42.016;23.098;2023-02-18T10:35:56;34.08;;;19.98;;
7336;SDS011;54510;42.016;23.098;2023-02-18T10:51:23;34.03;;;19.30;;
7336;SDS011;54510;42.016;23.098;2023-02-18T10:53:53;36.13;;;21.27;;
7336;SDS011;54510;42.016;23.098;2023-02-18T10:59:18;33.08;;;20.15;;
7336;SDS011;54510;42.016;23.098;2023-02-18T11:01:52;31.15;;;20.40;;
7336;SDS011;54510;42.016;23.098;2023-02-18T11:04:22;31.30;;;19.48;;
7336;SDS011;54510;42.016;23.098;2023-02-18T11:06:52;31.33;;;19.63;;
7336;SDS011;54510;42.016;23.098;2023-02-18T11:09:25;34.38;;;20.13;;
7336;SDS011;54510;42.016;23.098;2023-02-18T11:12:05;34.67;;;19.90;;
7336;SDS011;54510;42.016;23.098;2023-02-18T11:14:39;30.33;;;20.13;;
7336;SDS011;54510;42.016;23.098;2023-02-18T11:22:22;31.63;;;19.88;;
7336;SDS011;54510;42.016;23.098;2023-02-18T11:25:00;39.67;;;22.75;;
7336;SDS011;54510;42.016;23.098;2023-02-18T11:27:35;30.98;;;16.98;;
7336;SDS011;54510;42.016;23.098;2023-02-18T11:30:14;33.72;;;19.02;;
7336;SDS011;54510;42.016;23.098;2023-02-18T11:32:51;24.80;;;16.63;;
7336;SDS011;54510;42.016;23.098;2023-02-18T11:35:23;35.00;;;20.52;;
7336;SDS011;54510;42.016;23.098;2023-02-18T11:37:51;32.13;;;19.33;;
7336;SDS011;54510;42.016;23.098;2023-02-18T11:43:13;27.88;;;17.95;;
7336;SDS011;54510;42.016;23.098;2023-02-18T11:45:40;28.30;;;17.63;;
7336;SDS011;54510;42.016;23.098;2023-02-18T11:48:08;29.92;;;18.20;;
7336;SDS011;54510;42.016;23.098;2023-02-18T11:50:43;23.98;;;16.02;;
7336;SDS011;54510;42.016;23.098;2023-02-18T11:53:26;29.55;;;17.45;;
7336;SDS011;54510;42.016;23.098;2023-02-18T11:55:53;25.95;;;17.30;;
7336;SDS011;54510;42.016;23.098;2023-02-18T11:58:20;25.17;;;15.57;;
7336;SDS011;54510;42.016;23.098;2023-02-18T12:00:47;29.85;;;16.65;;
7336;SDS011;54510;42.016;23.098;2023-02-18T12:05:50;31.88;;;19.17;;
7336;SDS011;54510;42.016;23.098;2023-02-18T12:08:21;28.88;;;19.23;;
7336;SDS011;54510;42.016;23.098;2023-02-18T12:10:52;31.75;;;16.27;;
7336;SDS011;54510;42.016;23.098;2023-02-18T12:13:25;27.77;;;16.73;;
7336;SDS011;54510;42.016;23.098;2023-02-18T12:26:38;31.77;;;17.55;;
7336;SDS011;54510;42.016;23.098;2023-02-18T12:29:34;23.13;;;13.23;;
7336;SDS011;54510;42.016;23.098;2023-02-18T12:35:32;30.58;;;15.70;;
7336;SDS011;54510;42.016;23.098;2023-02-18T12:43:34;22.60;;;13.90;;
7336;SDS011;54510;42.016;23.098;2023-02-18T12:57:42;25.75;;;14.48;;
7336;SDS011;54510;42.016;23.098;2023-02-18T13:11:20;21.30;;;14.40;;
7336;SDS011;54510;42.016;23.098;2023-02-18T13:16:38;28.58;;;15.88;;
7336;SDS011;54510;42.016;23.098;2023-02-18T13:21:43;23.67;;;15.10;;
7336;SDS011;54510;42.016;23.098;2023-02-18T13:24:11;22.98;;;16.65;;
7336;SDS011;54510;42.016;23.098;2023-02-18T13:26:51;20.77;;;14.60;;
7336;SDS011;54510;42.016;23.098;2023-02-18T13:29:27;23.35;;;14.88;;
7336;SDS011;54510;42.016;23.098;2023-02-18T13:35:18;18.02;;;12.90;;
7336;SDS011;54510;42.016;23.098;2023-02-18T13:40:36;18.83;;;10.93;;
7336;SDS011;54510;42.016;23.098;2023-02-18T13:46:41;18.42;;;11.38;;
7336;SDS011;54510;42.016;23.098;2023-02-18T13:49:09;16.20;;;11.00;;
7336;SDS011;54510;42.016;23.098;2023-02-18T13:51:38;19.60;;;13.15;;
7336;SDS011;54510;42.016;23.098;2023-02-18T13:56:45;20.55;;;12.07;;
7336;SDS011;54510;42.016;23.098;2023-02-18T14:01:47;19.00;;;13.00;;
7336;SDS011;54510;42.016;23.098;2023-02-18T14:10:00;25.15;;;14.32;;
7336;SDS011;54510;42.016;23.098;2023-02-18T14:12:35;23.65;;;15.48;;
7336;SDS011;54510;42.016;23.098;2023-02-18T14:15:47;28.60;;;15.50;;
7336;SDS011;54510;42.016;23.098;2023-02-18T14:20:28;19.70;;;13.13;;
7336;SDS011;54510;42.016;23.098;2023-02-18T14:22:56;17.98;;;13.60;;
7336;SDS011;54510;42.016;23.098;2023-02-18T14:25:30;16.23;;;11.50;;
7336;SDS011;54510;42.016;23.098;2023-02-18T14:28:01;19.73;;;13.60;;
7336;SDS011;54510;42.016;23.098;2023-02-18T14:30:47;19.27;;;11.95;;
7336;SDS011;54510;42.016;23.098;2023-02-18T14:33:13;21.15;;;13.70;;
7336;SDS011;54510;42.016;23.098;2023-02-18T14:38:56;39.38;;;27.55;;
7336;SDS011;54510;42.016;23.098;2023-02-18T14:49:51;29.08;;;18.60;;
7336;SDS011;54510;42.016;23.098;2023-02-18T14:52:29;33.20;;;21.77;;
7336;SDS011;54510;42.016;23.098;2023-02-18T14:54:57;24.58;;;17.10;;
7336;SDS011;54510;42.016;23.098;2023-02-18T14:57:31;27.02;;;15.20;;
7336;SDS011;54510;42.016;23.098;2023-02-18T15:00:03;18.88;;;13.48;;
7336;SDS011;54510;42.016;23.098;2023-02-18T15:02:29;43.20;;;22.55;;
7336;SDS011;54510;42.016;23.098;2023-02-18T15:05:18;48.78;;;22.75;;
7336;SDS011;54510;42.016;23.098;2023-02-18T15:07:55;35.78;;;18.23;;
7336;SDS011;54510;42.016;23.098;2023-02-18T15:10:21;30.50;;;17.48;;
7336;SDS011;54510;42.016;23.098;2023-02-18T15:12:46;24.95;;;15.23;;
7336;SDS011;54510;42.016;23.098;2023-02-18T15:15:12;25.40;;;15.52;;
7336;SDS011;54510;42.016;23.098;2023-02-18T15:17:46;25.42;;;16.08;;
7336;SDS011;54510;42.016;23.098;2023-02-18T15:22:39;26.88;;;16.65;;
7336;SDS011;54510;42.016;23.098;2023-02-18T15:25:05;34.22;;;17.95;;
7336;SDS011;54510;42.016;23.098;2023-02-18T15:27:31;30.65;;;17.88;;
7336;SDS011;54510;42.016;23.098;2023-02-18T15:30:16;23.80;;;14.25;;
7336;SDS011;54510;42.016;23.098;2023-02-18T15:32:44;24.13;;;14.18;;
7336;SDS011;54510;42.016;23.098;2023-02-18T15:37:44;27.98;;;15.45;;
7336;SDS011;54510;42.016;23.098;2023-02-18T15:40:13;24.65;;;14.32;;
7336;SDS011;54510;42.016;23.098;2023-02-18T15:42:39;34.00;;;18.15;;
7336;SDS011;54510;42.016;23.098;2023-02-18T15:45:24;32.35;;;16.70;;
7336;SDS011;54510;42.016;23.098;2023-02-18T15:47:55;18.50;;;12.38;;
7336;SDS011;54510;42.016;23.098;2023-02-18T15:52:52;26.90;;;15.77;;
7336;SDS011;54510;42.016;23.098;2023-02-18T15:55:29;17.98;;;12.75;;
7336;SDS011;54510;42.016;23.098;2023-02-18T15:57:58;18.10;;;11.55;;
7336;SDS011;54510;42.016;23.098;2023-02-18T16:00:27;35.85;;;15.98;;
7336;SDS011;54510;42.016;23.098;2023-02-18T16:03:15;22.38;;;14.23;;
7336;SDS011;54510;42.016;23.098;2023-02-18T16:05:47;25.27;;;16.58;;
7336;SDS011;54510;42.016;23.098;2023-02-18T16:08:22;20.95;;;11.77;;
7336;SDS011;54510;42.016;23.098;2023-02-18T16:10:59;18.35;;;10.98;;
7336;SDS011;54510;42.016;23.098;2023-02-18T16:13:27;33.35;;;17.52;;
7336;SDS011;54510;42.016;23.098;2023-02-18T16:15:55;22.02;;;13.52;;
7336;SDS011;54510;42.016;23.098;2023-02-18T16:20:58;25.17;;;15.43;;
7336;SDS011;54510;42.016;23.098;2023-02-18T16:23:28;27.02;;;16.40;;
7336;SDS011;54510;42.016;23.098;2023-02-18T16:25:58;36.25;;;21.15;;
7336;SDS011;54510;42.016;23.098;2023-02-18T16:28:35;29.15;;;19.00;;
7336;SDS011;54510;42.016;23.098;2023-02-18T16:31:01;25.23;;;15.75;;
7336;SDS011;54510;42.016;23.098;2023-02-18T16:33:26;30.15;;;18.63;;
7336;SDS011;54510;42.016;23.098;2023-02-18T16:35:51;26.50;;;16.45;;
7336;SDS011;54510;42.016;23.098;2023-02-18T16:38:20;29.85;;;17.35;;
7336;SDS011;54510;42.016;23.098;2023-02-18T16:40:48;29.30;;;18.63;;
7336;SDS011;54510;42.016;23.098;2023-02-18T16:45:51;19.27;;;10.38;;
7336;SDS011;54510;42.016;23.098;2023-02-18T16:51:05;26.63;;;12.88;;
7336;SDS011;54510;42.016;23.098;2023-02-18T16:53:41;28.80;;;14.73;;
7336;SDS011;54510;42.016;23.098;2023-02-18T16:56:14;32.97;;;17.77;;
7336;SDS011;54510;42.016;23.098;2023-02-18T16:58:44;19.23;;;11.77;;
7336;SDS011;54510;42.016;23.098;2023-02-18T17:01:14;24.48;;;13.82;;
7336;SDS011;54510;42.016;23.098;2023-02-18T17:03:49;25.48;;;13.60;;
7336;SDS011;54510;42.016;23.098;2023-02-18T17:06:15;38.75;;;18.73;;
7336;SDS011;54510;42.016;23.098;2023-02-18T17:08:41;32.95;;;20.45;;
7336;SDS011;54510;42.016;23.098;2023-02-18T17:11:08;43.78;;;23.00;;
7336;SDS011;54510;42.016;23.098;2023-02-18T17:13:45;53.20;;;30.40;;
7336;SDS011;54510;42.016;23.098;2023-02-18T17:16:12;95.75;;;55.47;;
7336;SDS011;54510;42.016;23.098;2023-02-18T17:18:38;73.38;;;40.25;;
7336;SDS011;54510;42.016;23.098;2023-02-18T17:21:03;42.30;;;22.60;;